sensor_id;sensor_type;location;lat;lon;timestamp;pressure;altitude;pressure_sealevel;temperature;humidity
4834;BME280;12895;51.064;7.028;2023-06-26T00:00:53;100473.34;;;24.27;48.68
4834;BME280;12895;51.064;7.028;2023-06-26T00:03:40;100490.09;;;24.25;49.15
4834;BME280;12895;51.064;7.028;2023-06-26T00:06:27;100478.78;;;24.25;49.84
4834;BME280;12895;51.064;7.028;2023-06-26T00:09:16;100480.31;;;24.26;47.79
4834;BME280;12895;51.064;7.028;2023-06-26T00:12:03;100471.66;;;24.24;47.98
4834;BME280;12895;51.064;7.028;2023-06-26T00:14:50;100476.97;;;24.20;49.44
4834;BME280;12895;51.064;7.028;2023-06-26T00:17:37;100473.97;;;24.18;48.41
4834;BME280;12895;51.064;7.028;2023-06-26T00:20:24;100467.22;;;24.14;49.16
4834;BME280;12895;51.064;7.028;2023-06-26T00:23:12;100465.34;;;24.16;49.26
4834;BME280;12895;51.064;7.028;2023-06-26T00:26:04;100465.34;;;24.16;48.77
4834;BME280;12895;51.064;7.028;2023-06-26T00:28:51;100467.84;;;24.05;48.54
4834;BME280;12895;51.064;7.028;2023-06-26T00:31:39;100465.41;;;24.01;48.91
4834;BME280;12895;51.064;7.028;2023-06-26T00:34:26;100464.19;;;23.87;48.56
4834;BME280;12895;51.064;7.028;2023-06-26T00:37:13;100464.72;;;23.93;48.75
4834;BME280;12895;51.064;7.028;2023-06-26T00:40:00;100459.81;;;23.94;47.82
4834;BME280;12895;51.064;7.028;2023-06-26T00:42:50;100455.72;;;23.80;48.55
4834;BME280;12895;51.064;7.028;2023-06-26T00:45:37;100463.31;;;23.70;51.59
4834;BME280;12895;51.064;7.028;2023-06-26T00:48:23;100467.06;;;23.72;51.35
4834;BME280;12895;51.064;7.028;2023-06-26T00:51:11;100458.78;;;23.74;49.70
4834;BME280;12895;51.064;7.028;2023-06-26T00:53:58;100462.19;;;23.65;51.39
4834;BME280;12895;51.064;7.028;2023-06-26T00:56:45;100450.75;;;23.63;49.51
4834;BME280;12895;51.064;7.028;2023-06-26T00:59:34;100451.00;;;23.50;53.86
4834;BME280;12895;51.064;7.028;2023-06-26T01:02:21;100451.59;;;23.41;52.07
4834;BME280;12895;51.064;7.028;2023-06-26T01:05:10;100449.13;;;23.45;51.56
4834;BME280;12895;51.064;7.028;2023-06-26T01:07:58;100448.69;;;23.56;49.90
4834;BME280;12895;51.064;7.028;2023-06-26T01:10:46;100445.00;;;23.46;49.63
4834;BME280;12895;51.064;7.028;2023-06-26T01:13:34;100450.47;;;23.44;51.05
4834;BME280;12895;51.064;7.028;2023-06-26T01:16:24;100456.69;;;23.35;51.75
4834;BME280;12895;51.064;7.028;2023-06-26T01:19:18;100446.75;;;23.34;50.96
4834;BME280;12895;51.064;7.028;2023-06-26T01:22:16;100444.34;;;23.08;53.39
4834;BME280;12895;51.064;7.028;2023-06-26T01:25:13;100442.66;;;23.05;52.86
4834;BME280;12895;51.064;7.028;2023-06-26T01:28:05;100435.72;;;23.06;51.66
4834;BME280;12895;51.064;7.028;2023-06-26T01:30:53;100432.75;;;22.97;53.41
4834;BME280;12895;51.064;7.028;2023-06-26T01:33:42;100427.50;;;22.93;53.33
4834;BME280;12895;51.064;7.028;2023-06-26T01:36:30;100426.69;;;23.08;52.25
4834;BME280;12895;51.064;7.028;2023-06-26T01:39:18;100431.56;;;23.07;52.32
4834;BME280;12895;51.064;7.028;2023-06-26T01:42:06;100432.19;;;22.91;54.49
4834;BME280;12895;51.064;7.028;2023-06-26T01:44:55;100421.84;;;22.93;53.06
4834;BME280;12895;51.064;7.028;2023-06-26T01:47:48;100429.41;;;22.83;54.17
4834;BME280;12895;51.064;7.028;2023-06-26T01:50:36;100423.19;;;22.77;53.10
4834;BME280;12895;51.064;7.028;2023-06-26T01:53:28;100435.41;;;22.65;55.11
4834;BME280;12895;51.064;7.028;2023-06-26T01:56:18;100437.69;;;22.67;54.92
4834;BME280;12895;51.064;7.028;2023-06-26T01:59:06;100432.44;;;22.56;54.57
4834;BME280;12895;51.064;7.028;2023-06-26T02:01:55;100438.84;;;22.41;55.26
4834;BME280;12895;51.064;7.028;2023-06-26T02:04:42;100428.47;;;22.29;55.38
4834;BME280;12895;51.064;7.028;2023-06-26T02:07:30;100432.03;;;22.37;55.88
4834;BME280;12895;51.064;7.028;2023-06-26T02:10:17;100433.19;;;22.34;56.30
4834;BME280;12895;51.064;7.028;2023-06-26T02:13:04;100436.56;;;22.32;56.23
4834;BME280;12895;51.064;7.028;2023-06-26T02:15:51;100433.19;;;22.34;55.21
4834;BME280;12895;51.064;7.028;2023-06-26T02:18:39;100436.19;;;22.28;54.49
4834;BME280;12895;51.064;7.028;2023-06-26T02:21:27;100441.81;;;22.36;57.13
4834;BME280;12895;51.064;7.028;2023-06-26T02:24:16;100444.78;;;22.23;55.93
4834;BME280;12895;51.064;7.028;2023-06-26T02:27:03;100448.56;;;22.18;54.86
4834;BME280;12895;51.064;7.028;2023-06-26T02:29:50;100443.28;;;22.07;56.08
4834;BME280;12895;51.064;7.028;2023-06-26T02:32:37;100449.06;;;21.94;56.37
4834;BME280;12895;51.064;7.028;2023-06-26T02:35:25;100451.50;;;21.90;56.19
4834;BME280;12895;51.064;7.028;2023-06-26T02:38:12;100458.63;;;21.91;57.88
4834;BME280;12895;51.064;7.028;2023-06-26T02:40:59;100459.22;;;21.89;58.24
4834;BME280;12895;51.064;7.028;2023-06-26T02:43:46;100462.78;;;21.90;57.95
4834;BME280;12895;51.064;7.028;2023-06-26T02:46:33;100465.41;;;21.88;59.40
4834;BME280;12895;51.064;7.028;2023-06-26T02:49:20;100462.34;;;21.71;59.91
4834;BME280;12895;51.064;7.028;2023-06-26T02:52:09;100462.66;;;21.60;58.26
4834;BME280;12895;51.064;7.028;2023-06-26T02:54:56;100463.00;;;21.49;58.40
4834;BME280;12895;51.064;7.028;2023-06-26T02:57:43;100474.63;;;21.53;58.93
4834;BME280;12895;51.064;7.028;2023-06-26T03:00:30;100485.69;;;21.51;57.49
4834;BME280;12895;51.064;7.028;2023-06-26T03:03:20;100488.63;;;21.38;58.00
4834;BME280;12895;51.064;7.028;2023-06-26T03:06:07;100488.41;;;21.36;58.81
4834;BME280;12895;51.064;7.028;2023-06-26T03:08:56;100497.78;;;21.31;58.73
4834;BME280;12895;51.064;7.028;2023-06-26T03:11:43;100498.16;;;21.35;60.06
4834;BME280;12895;51.064;7.028;2023-06-26T03:14:31;100498.56;;;21.39;59.56
4834;BME280;12895;51.064;7.028;2023-06-26T03:17:18;100502.34;;;21.41;59.11
4834;BME280;12895;51.064;7.028;2023-06-26T03:20:07;100502.69;;;21.38;59.41
4834;BME280;12895;51.064;7.028;2023-06-26T03:23:06;100511.50;;;21.42;58.70
4834;BME280;12895;51.064;7.028;2023-06-26T03:25:54;100512.31;;;21.50;59.05
4834;BME280;12895;51.064;7.028;2023-06-26T03:28:45;100510.91;;;21.36;58.76
4834;BME280;12895;51.064;7.028;2023-06-26T03:31:32;100517.66;;;21.33;58.95
4834;BME280;12895;51.064;7.028;2023-06-26T03:34:19;100507.91;;;21.34;59.04
4834;BME280;12895;51.064;7.028;2023-06-26T03:37:07;100532.16;;;21.44;58.45
4834;BME280;12895;51.064;7.028;2023-06-26T03:39:54;100516.63;;;21.51;59.99
4834;BME280;12895;51.064;7.028;2023-06-26T03:42:44;100526.66;;;21.31;59.27
4834;BME280;12895;51.064;7.028;2023-06-26T03:45:32;100522.31;;;21.30;59.34
4834;BME280;12895;51.064;7.028;2023-06-26T03:48:19;100522.13;;;21.28;60.01
4834;BME280;12895;51.064;7.028;2023-06-26T03:51:06;100526.19;;;21.20;60.83
4834;BME280;12895;51.064;7.028;2023-06-26T03:53:53;100520.44;;;21.25;60.27
4834;BME280;12895;51.064;7.028;2023-06-26T03:56:40;100521.16;;;21.26;61.29
4834;BME280;12895;51.064;7.028;2023-06-26T03:59:28;100530.06;;;21.45;60.99
4834;BME280;12895;51.064;7.028;2023-06-26T04:02:15;100526.66;;;21.67;58.58
4834;BME280;12895;51.064;7.028;2023-06-26T04:05:03;100537.78;;;21.80;58.84
4834;BME280;12895;51.064;7.028;2023-06-26T04:07:50;100535.28;;;21.69;59.84
4834;BME280;12895;51.064;7.028;2023-06-26T04:10:38;100536.09;;;21.77;61.32
4834;BME280;12895;51.064;7.028;2023-06-26T04:13:25;100548.25;;;21.72;61.00
4834;BME280;12895;51.064;7.028;2023-06-26T04:16:13;100548.13;;;21.85;60.11
4834;BME280;12895;51.064;7.028;2023-06-26T04:19:01;100553.38;;;21.88;59.13
4834;BME280;12895;51.064;7.028;2023-06-26T04:21:50;100550.28;;;22.22;57.69
4834;BME280;12895;51.064;7.028;2023-06-26T04:24:37;100555.94;;;22.37;60.56
4834;BME280;12895;51.064;7.028;2023-06-26T04:27:24;100559.38;;;22.58;56.79
4834;BME280;12895;51.064;7.028;2023-06-26T04:30:11;100560.34;;;22.53;57.52
4834;BME280;12895;51.064;7.028;2023-06-26T04:33:00;100567.47;;;22.54;57.31
4834;BME280;12895;51.064;7.028;2023-06-26T04:35:47;100563.16;;;22.53;57.68
4834;BME280;12895;51.064;7.028;2023-06-26T04:38:35;100575.53;;;23.09;55.29
4834;BME280;12895;51.064;7.028;2023-06-26T04:41:22;100570.66;;;23.02;55.80
4834;BME280;12895;51.064;7.028;2023-06-26T04:44:09;100571.41;;;22.95;56.39
4834;BME280;12895;51.064;7.028;2023-06-26T04:46:56;100579.31;;;22.74;56.97
4834;BME280;12895;51.064;7.028;2023-06-26T04:49:44;100571.03;;;22.76;56.67
4834;BME280;12895;51.064;7.028;2023-06-26T04:52:31;100574.81;;;22.86;57.13
4834;BME280;12895;51.064;7.028;2023-06-26T04:55:18;100573.31;;;23.00;57.02
4834;BME280;12895;51.064;7.028;2023-06-26T04:58:07;100578.19;;;22.92;57.74
4834;BME280;12895;51.064;7.028;2023-06-26T05:00:54;100580.44;;;22.86;58.32
4834;BME280;12895;51.064;7.028;2023-06-26T05:03:41;100578.91;;;22.70;58.83
4834;BME280;12895;51.064;7.028;2023-06-26T05:06:29;100577.81;;;22.81;59.00
4834;BME280;12895;51.064;7.028;2023-06-26T05:09:16;100585.50;;;22.66;58.83
4834;BME280;12895;51.064;7.028;2023-06-26T05:12:04;100592.44;;;22.65;59.06
4834;BME280;12895;51.064;7.028;2023-06-26T05:14:51;100599.19;;;22.54;59.21
4834;BME280;12895;51.064;7.028;2023-06-26T05:17:38;100592.63;;;22.67;58.44
4834;BME280;12895;51.064;7.028;2023-06-26T05:20:24;100599.94;;;22.55;58.70
4834;BME280;12895;51.064;7.028;2023-06-26T05:23:13;100599.22;;;22.76;58.38
4834;BME280;12895;51.064;7.028;2023-06-26T05:26:01;100602.25;;;22.86;58.74
4834;BME280;12895;51.064;7.028;2023-06-26T05:28:49;100599.78;;;23.12;56.98
4834;BME280;12895;51.064;7.028;2023-06-26T05:31:37;100602.28;;;23.16;56.81
4834;BME280;12895;51.064;7.028;2023-06-26T05:34:27;100605.25;;;22.95;57.25
4834;BME280;12895;51.064;7.028;2023-06-26T05:37:18;100601.09;;;22.67;57.69
4834;BME280;12895;51.064;7.028;2023-06-26T05:40:09;100593.00;;;22.56;58.02
4834;BME280;12895;51.064;7.028;2023-06-26T05:42:56;100597.28;;;22.42;57.81
4834;BME280;12895;51.064;7.028;2023-06-26T05:45:43;100607.44;;;22.45;57.47
4834;BME280;12895;51.064;7.028;2023-06-26T05:48:30;100611.50;;;22.29;57.88
4834;BME280;12895;51.064;7.028;2023-06-26T05:51:18;100618.09;;;22.39;57.61
4834;BME280;12895;51.064;7.028;2023-06-26T05:54:05;100626.16;;;22.35;57.76
4834;BME280;12895;51.064;7.028;2023-06-26T05:56:56;100625.13;;;22.53;57.43
4834;BME280;12895;51.064;7.028;2023-06-26T05:59:45;100630.53;;;22.51;57.48
4834;BME280;12895;51.064;7.028;2023-06-26T06:02:32;100635.97;;;22.49;57.59
4834;BME280;12895;51.064;7.028;2023-06-26T06:05:21;100633.69;;;22.40;57.96
4834;BME280;12895;51.064;7.028;2023-06-26T06:08:08;100632.13;;;22.24;58.25
4834;BME280;12895;51.064;7.028;2023-06-26T06:10:55;100637.38;;;22.20;58.38
4834;BME280;12895;51.064;7.028;2023-06-26T06:13:43;100629.63;;;22.56;57.54
4834;BME280;12895;51.064;7.028;2023-06-26T06:16:30;100636.03;;;22.78;57.07
4834;BME280;12895;51.064;7.028;2023-06-26T06:19:17;100636.81;;;23.01;56.62
4834;BME280;12895;51.064;7.028;2023-06-26T06:22:05;100646.97;;;23.04;57.02
4834;BME280;12895;51.064;7.028;2023-06-26T06:24:52;100643.22;;;22.94;56.47
4834;BME280;12895;51.064;7.028;2023-06-26T06:27:39;100651.44;;;22.85;56.82
4834;BME280;12895;51.064;7.028;2023-06-26T06:30:28;100650.16;;;22.93;56.39
4834;BME280;12895;51.064;7.028;2023-06-26T06:33:15;100648.66;;;22.92;56.84
4834;BME280;12895;51.064;7.028;2023-06-26T06:36:02;100649.25;;;23.21;56.35
4834;BME280;12895;51.064;7.028;2023-06-26T06:38:49;100653.94;;;23.33;55.53
4834;BME280;12895;51.064;7.028;2023-06-26T06:41:38;100669.16;;;23.23;56.61
4834;BME280;12895;51.064;7.028;2023-06-26T06:44:25;100655.78;;;23.08;56.93
4834;BME280;12895;51.064;7.028;2023-06-26T06:47:20;100665.44;;;23.20;56.41
4834;BME280;12895;51.064;7.028;2023-06-26T06:50:07;100670.25;;;22.82;57.36
4834;BME280;12895;51.064;7.028;2023-06-26T06:52:57;100673.06;;;22.82;57.21
4834;BME280;12895;51.064;7.028;2023-06-26T06:55:44;100671.69;;;22.54;58.13
4834;BME280;12895;51.064;7.028;2023-06-26T06:58:31;100683.31;;;22.50;58.36
4834;BME280;12895;51.064;7.028;2023-06-26T07:01:19;100698.19;;;22.23;59.16
4834;BME280;12895;51.064;7.028;2023-06-26T07:04:07;100690.84;;;22.20;59.18
4834;BME280;12895;51.064;7.028;2023-06-26T07:06:54;100696.09;;;22.16;60.24
4834;BME280;12895;51.064;7.028;2023-06-26T07:09:41;100699.88;;;22.18;59.57
4834;BME280;12895;51.064;7.028;2023-06-26T07:12:28;100711.75;;;22.32;59.60
4834;BME280;12895;51.064;7.028;2023-06-26T07:15:16;100716.16;;;22.48;59.25
4834;BME280;12895;51.064;7.028;2023-06-26T07:18:03;100721.56;;;22.38;58.83
4834;BME280;12895;51.064;7.028;2023-06-26T07:20:52;100732.47;;;22.42;58.66
4834;BME280;12895;51.064;7.028;2023-06-26T07:23:39;100724.69;;;22.63;58.58
4834;BME280;12895;51.064;7.028;2023-06-26T07:26:25;100735.84;;;22.90;57.67
4834;BME280;12895;51.064;7.028;2023-06-26T07:29:13;100742.03;;;22.96;57.07
4834;BME280;12895;51.064;7.028;2023-06-26T07:31:59;100723.69;;;23.25;57.01
4834;BME280;12895;51.064;7.028;2023-06-26T07:34:47;100715.03;;;23.61;56.47
4834;BME280;12895;51.064;7.028;2023-06-26T07:37:37;100727.88;;;23.39;55.92
4834;BME280;12895;51.064;7.028;2023-06-26T07:40:25;100720.63;;;23.01;57.46
4834;BME280;12895;51.064;7.028;2023-06-26T07:43:12;100719.47;;;22.81;57.36
4834;BME280;12895;51.064;7.028;2023-06-26T07:45:59;100713.06;;;22.73;58.83
4834;BME280;12895;51.064;7.028;2023-06-26T07:48:46;100709.16;;;22.99;57.56
4834;BME280;12895;51.064;7.028;2023-06-26T07:51:33;100704.84;;;22.98;58.29
4834;BME280;12895;51.064;7.028;2023-06-26T07:54:21;100707.84;;;23.07;57.16
4834;BME280;12895;51.064;7.028;2023-06-26T07:57:09;100703.34;;;23.04;57.12
4834;BME280;12895;51.064;7.028;2023-06-26T07:59:57;100725.50;;;22.85;58.10
4834;BME280;12895;51.064;7.028;2023-06-26T08:02:44;100716.78;;;22.68;58.47
4834;BME280;12895;51.064;7.028;2023-06-26T08:05:31;100724.28;;;22.59;58.76
4834;BME280;12895;51.064;7.028;2023-06-26T08:08:18;100733.22;;;23.07;57.44
4834;BME280;12895;51.064;7.028;2023-06-26T08:11:06;100724.84;;;23.30;56.18
4834;BME280;12895;51.064;7.028;2023-06-26T08:13:53;100739.53;;;23.58;56.07
4834;BME280;12895;51.064;7.028;2023-06-26T08:16:41;100739.13;;;23.84;55.31
4834;BME280;12895;51.064;7.028;2023-06-26T08:19:29;100735.34;;;23.74;56.01
4834;BME280;12895;51.064;7.028;2023-06-26T08:22:16;100740.19;;;24.26;55.01
4834;BME280;12895;51.064;7.028;2023-06-26T08:25:04;100739.34;;;24.56;53.12
4834;BME280;12895;51.064;7.028;2023-06-26T08:27:53;100741.63;;;24.89;53.39
4834;BME280;12895;51.064;7.028;2023-06-26T08:30:41;100752.16;;;24.49;53.97
4834;BME280;12895;51.064;7.028;2023-06-26T08:33:28;100753.34;;;24.31;53.78
4834;BME280;12895;51.064;7.028;2023-06-26T08:36:15;100757.06;;;24.41;54.19
4834;BME280;12895;51.064;7.028;2023-06-26T08:39:02;100762.38;;;24.30;53.95
4834;BME280;12895;51.064;7.028;2023-06-26T08:41:50;100756.25;;;24.63;53.03
4834;BME280;12895;51.064;7.028;2023-06-26T08:44:39;100759.28;;;24.65;53.29
4834;BME280;12895;51.064;7.028;2023-06-26T08:47:26;100762.09;;;24.65;52.61
4834;BME280;12895;51.064;7.028;2023-06-26T08:50:14;100774.75;;;24.49;53.66
4834;BME280;12895;51.064;7.028;2023-06-26T08:53:04;100772.97;;;24.14;54.27
4834;BME280;12895;51.064;7.028;2023-06-26T08:55:54;100776.16;;;24.11;54.35
4834;BME280;12895;51.064;7.028;2023-06-26T08:58:44;100779.94;;;24.13;53.98
4834;BME280;12895;51.064;7.028;2023-06-26T09:01:26;100786.91;;;24.12;54.36
4834;BME280;12895;51.064;7.028;2023-06-26T09:04:14;100786.88;;;24.27;53.62
4834;BME280;12895;51.064;7.028;2023-06-26T09:07:01;100790.69;;;24.07;54.22
4834;BME280;12895;51.064;7.028;2023-06-26T09:09:48;100794.34;;;24.47;53.38
4834;BME280;12895;51.064;7.028;2023-06-26T09:12:36;100786.00;;;24.72;51.84
4834;BME280;12895;51.064;7.028;2023-06-26T09:15:24;100798.84;;;24.65;51.47
4834;BME280;12895;51.064;7.028;2023-06-26T09:18:12;100792.09;;;24.46;51.57
4834;BME280;12895;51.064;7.028;2023-06-26T09:20:59;100793.59;;;24.47;51.26
4834;BME280;12895;51.064;7.028;2023-06-26T09:23:46;100803.09;;;24.19;51.60
4834;BME280;12895;51.064;7.028;2023-06-26T09:26:34;100793.66;;;24.17;52.53
4834;BME280;12895;51.064;7.028;2023-06-26T09:29:21;100789.19;;;23.84;52.98
4834;BME280;12895;51.064;7.028;2023-06-26T09:32:09;100783.38;;;23.89;53.28
4834;BME280;12895;51.064;7.028;2023-06-26T09:34:57;100778.41;;;24.27;52.34
4834;BME280;12895;51.064;7.028;2023-06-26T09:37:49;100783.41;;;24.51;53.03
4834;BME280;12895;51.064;7.028;2023-06-26T09:40:42;100788.94;;;24.89;50.78
4834;BME280;12895;51.064;7.028;2023-06-26T09:43:29;100793.41;;;24.99;49.80
4834;BME280;12895;51.064;7.028;2023-06-26T09:46:23;100793.66;;;24.32;50.84
4834;BME280;12895;51.064;7.028;2023-06-26T09:49:11;100808.69;;;24.34;52.12
4834;BME280;12895;51.064;7.028;2023-06-26T09:52:00;100802.38;;;24.73;50.61
4834;BME280;12895;51.064;7.028;2023-06-26T09:54:48;100810.84;;;24.81;49.39
4834;BME280;12895;51.064;7.028;2023-06-26T09:57:35;100793.31;;;25.14;49.60
4834;BME280;12895;51.064;7.028;2023-06-26T10:00:24;100819.28;;;25.20;48.29
4834;BME280;12895;51.064;7.028;2023-06-26T10:03:11;100807.53;;;24.99;48.77
4834;BME280;12895;51.064;7.028;2023-06-26T10:06:00;100813.53;;;24.64;48.99
4834;BME280;12895;51.064;7.028;2023-06-26T10:08:49;100821.09;;;24.46;49.49
4834;BME280;12895;51.064;7.028;2023-06-26T10:11:40;100822.41;;;24.53;49.81
4834;BME280;12895;51.064;7.028;2023-06-26T10:14:32;100818.50;;;24.95;49.00
4834;BME280;12895;51.064;7.028;2023-06-26T10:17:20;100816.25;;;25.33;47.05
4834;BME280;12895;51.064;7.028;2023-06-26T10:20:09;100817.75;;;25.34;47.72
4834;BME280;12895;51.064;7.028;2023-06-26T10:22:57;100821.94;;;25.26;46.37
4834;BME280;12895;51.064;7.028;2023-06-26T10:25:51;100819.72;;;25.49;46.05
4834;BME280;12895;51.064;7.028;2023-06-26T10:28:40;100819.94;;;25.43;46.13
4834;BME280;12895;51.064;7.028;2023-06-26T10:31:28;100828.53;;;25.28;46.72
4834;BME280;12895;51.064;7.028;2023-06-26T10:34:16;100829.88;;;25.20;46.09
4834;BME280;12895;51.064;7.028;2023-06-26T10:37:04;100818.88;;;25.31;45.64
4834;BME280;12895;51.064;7.028;2023-06-26T10:39:52;100830.72;;;25.37;44.85
4834;BME280;12895;51.064;7.028;2023-06-26T10:42:41;100845.44;;;25.68;42.91
4834;BME280;12895;51.064;7.028;2023-06-26T10:45:28;100827.16;;;25.37;42.72
4834;BME280;12895;51.064;7.028;2023-06-26T10:48:15;100828.78;;;25.15;44.75
4834;BME280;12895;51.064;7.028;2023-06-26T10:51:13;100849.19;;;25.06;42.87
4834;BME280;12895;51.064;7.028;2023-06-26T10:54:00;100836.38;;;25.05;42.61
4834;BME280;12895;51.064;7.028;2023-06-26T10:56:49;100822.25;;;25.37;44.14
4834;BME280;12895;51.064;7.028;2023-06-26T10:59:39;100831.91;;;25.34;45.47
4834;BME280;12895;51.064;7.028;2023-06-26T11:02:26;100831.91;;;25.59;44.70
4834;BME280;12895;51.064;7.028;2023-06-26T11:05:23;100828.56;;;26.01;45.03
4834;BME280;12895;51.064;7.028;2023-06-26T11:08:11;100839.84;;;26.09;42.65
4834;BME280;12895;51.064;7.028;2023-06-26T11:11:02;100826.22;;;25.90;43.16
4834;BME280;12895;51.064;7.028;2023-06-26T11:13:49;100843.53;;;26.19;42.64
4834;BME280;12895;51.064;7.028;2023-06-26T11:16:53;100856.00;;;26.16;41.43
4834;BME280;12895;51.064;7.028;2023-06-26T11:19:42;100846.72;;;25.98;43.53
4834;BME280;12895;51.064;7.028;2023-06-26T11:22:30;100838.31;;;25.59;40.44
4834;BME280;12895;51.064;7.028;2023-06-26T11:25:19;100847.97;;;26.05;38.52
4834;BME280;12895;51.064;7.028;2023-06-26T11:28:09;100845.19;;;26.22;39.08
4834;BME280;12895;51.064;7.028;2023-06-26T11:30:56;100860.88;;;26.40;39.52
4834;BME280;12895;51.064;7.028;2023-06-26T11:33:46;100846.72;;;26.40;40.53
4834;BME280;12895;51.064;7.028;2023-06-26T11:36:34;100866.84;;;26.27;38.52
4834;BME280;12895;51.064;7.028;2023-06-26T11:39:23;100857.47;;;25.76;37.72
4834;BME280;12895;51.064;7.028;2023-06-26T11:42:11;100856.63;;;25.82;38.21
4834;BME280;12895;51.064;7.028;2023-06-26T11:45:00;100859.63;;;25.92;38.61
4834;BME280;12895;51.064;7.028;2023-06-26T11:47:48;100860.47;;;25.77;39.03
4834;BME280;12895;51.064;7.028;2023-06-26T11:50:38;100868.28;;;25.38;40.49
4834;BME280;12895;51.064;7.028;2023-06-26T11:53:25;100873.72;;;25.43;39.79
4834;BME280;12895;51.064;7.028;2023-06-26T11:56:13;100861.53;;;25.33;40.29
4834;BME280;12895;51.064;7.028;2023-06-26T11:59:02;100855.66;;;25.63;39.69
4834;BME280;12895;51.064;7.028;2023-06-26T12:01:50;100856.22;;;25.86;39.84
4834;BME280;12895;51.064;7.028;2023-06-26T12:04:38;100871.38;;;26.30;39.13
4834;BME280;12895;51.064;7.028;2023-06-26T12:07:28;100862.03;;;26.37;39.32
4834;BME280;12895;51.064;7.028;2023-06-26T12:10:17;100873.53;;;26.63;36.05
4834;BME280;12895;51.064;7.028;2023-06-26T12:13:05;100875.84;;;26.16;37.08
4834;BME280;12895;51.064;7.028;2023-06-26T12:15:52;100871.75;;;26.51;36.21
4834;BME280;12895;51.064;7.028;2023-06-26T12:18:40;100875.91;;;27.01;35.43
4834;BME280;12895;51.064;7.028;2023-06-26T12:21:47;100872.84;;;26.72;36.31
4834;BME280;12895;51.064;7.028;2023-06-26T12:24:39;100866.31;;;26.45;37.36
4834;BME280;12895;51.064;7.028;2023-06-26T12:27:29;100884.13;;;26.38;37.09
4834;BME280;12895;51.064;7.028;2023-06-26T12:30:15;100876.16;;;26.03;37.80
4834;BME280;12895;51.064;7.028;2023-06-26T12:33:02;100883.84;;;26.27;38.63
4834;BME280;12895;51.064;7.028;2023-06-26T12:35:49;100897.69;;;26.23;38.36
4834;BME280;12895;51.064;7.028;2023-06-26T12:38:36;100892.22;;;26.00;38.97
4834;BME280;12895;51.064;7.028;2023-06-26T12:41:26;100891.63;;;26.02;38.50
4834;BME280;12895;51.064;7.028;2023-06-26T12:44:21;100904.91;;;26.41;38.33
4834;BME280;12895;51.064;7.028;2023-06-26T12:47:13;100911.38;;;26.34;37.60
4834;BME280;12895;51.064;7.028;2023-06-26T12:50:07;100913.84;;;26.13;37.84
4834;BME280;12895;51.064;7.028;2023-06-26T12:52:55;100902.50;;;26.13;38.32
4834;BME280;12895;51.064;7.028;2023-06-26T12:55:43;100919.34;;;25.87;38.12
4834;BME280;12895;51.064;7.028;2023-06-26T12:58:31;100919.25;;;25.30;39.40
4834;BME280;12895;51.064;7.028;2023-06-26T13:01:18;100921.47;;;25.39;38.29
4834;BME280;12895;51.064;7.028;2023-06-26T13:04:06;100909.41;;;25.31;38.48
4834;BME280;12895;51.064;7.028;2023-06-26T13:06:54;100910.66;;;25.77;37.19
4834;BME280;12895;51.064;7.028;2023-06-26T13:09:41;100921.66;;;25.73;36.87
4834;BME280;12895;51.064;7.028;2023-06-26T13:12:31;100919.94;;;25.77;35.11
4834;BME280;12895;51.064;7.028;2023-06-26T13:15:19;100912.44;;;25.97;34.95
4834;BME280;12895;51.064;7.028;2023-06-26T13:18:07;100916.69;;;25.81;34.95
4834;BME280;12895;51.064;7.028;2023-06-26T13:20:54;100915.00;;;26.10;34.34
4834;BME280;12895;51.064;7.028;2023-06-26T13:23:41;100918.34;;;26.16;34.21
4834;BME280;12895;51.064;7.028;2023-06-26T13:26:28;100922.88;;;26.60;33.98
4834;BME280;12895;51.064;7.028;2023-06-26T13:29:15;100927.81;;;26.60;33.94
4834;BME280;12895;51.064;7.028;2023-06-26T13:32:05;100928.81;;;26.72;33.79
4834;BME280;12895;51.064;7.028;2023-06-26T13:34:52;100931.63;;;26.55;33.90
4834;BME280;12895;51.064;7.028;2023-06-26T13:37:40;100934.41;;;26.96;33.90
4834;BME280;12895;51.064;7.028;2023-06-26T13:40:27;100939.00;;;27.09;31.96
4834;BME280;12895;51.064;7.028;2023-06-26T13:43:14;100938.47;;;27.03;32.44
4834;BME280;12895;51.064;7.028;2023-06-26T13:46:01;100947.84;;;27.30;30.85
4834;BME280;12895;51.064;7.028;2023-06-26T13:48:50;100949.34;;;26.97;30.82
4834;BME280;12895;51.064;7.028;2023-06-26T13:51:37;100935.94;;;26.56;31.73
4834;BME280;12895;51.064;7.028;2023-06-26T13:54:26;100935.72;;;26.61;30.32
4834;BME280;12895;51.064;7.028;2023-06-26T13:57:13;100937.00;;;26.68;29.78
4834;BME280;12895;51.064;7.028;2023-06-26T14:00:00;100929.22;;;27.02;28.62
4834;BME280;12895;51.064;7.028;2023-06-26T14:02:58;100933.94;;;27.51;29.80
4834;BME280;12895;51.064;7.028;2023-06-26T14:05:48;100927.59;;;27.43;29.40
4834;BME280;12895;51.064;7.028;2023-06-26T14:08:35;100941.03;;;27.86;28.47
4834;BME280;12895;51.064;7.028;2023-06-26T14:11:22;100943.13;;;28.21;27.24
4834;BME280;12895;51.064;7.028;2023-06-26T14:14:11;100930.88;;;28.28;27.68
4834;BME280;12895;51.064;7.028;2023-06-26T14:17:01;100938.06;;;28.29;28.13
4834;BME280;12895;51.064;7.028;2023-06-26T14:19:49;100933.63;;;28.00;27.89
4834;BME280;12895;51.064;7.028;2023-06-26T14:22:37;100935.47;;;28.50;28.07
4834;BME280;12895;51.064;7.028;2023-06-26T14:25:24;100932.28;;;29.79;25.90
4834;BME280;12895;51.064;7.028;2023-06-26T14:28:12;100955.75;;;31.11;24.26
4834;BME280;12895;51.064;7.028;2023-06-26T14:30:59;100948.38;;;31.61;22.86
4834;BME280;12895;51.064;7.028;2023-06-26T14:33:47;100934.16;;;31.84;22.98
4834;BME280;12895;51.064;7.028;2023-06-26T14:36:35;100931.56;;;33.55;21.06
4834;BME280;12895;51.064;7.028;2023-06-26T14:39:24;100934.84;;;33.88;21.53
4834;BME280;12895;51.064;7.028;2023-06-26T14:42:12;100949.59;;;32.14;23.08
4834;BME280;12895;51.064;7.028;2023-06-26T14:48:06;100941.38;;;30.36;24.98
4834;BME280;12895;51.064;7.028;2023-06-26T14:50:54;100947.91;;;30.48;25.99
4834;BME280;12895;51.064;7.028;2023-06-26T14:53:42;100956.09;;;29.93;26.03